Briefing drone pour Langeais

Rechercher une autre localisation

Conditions de vol :


Nous sommes le : Lundi 08 mars 2021
Il est 05:28 UTC (06:28 LT)

Lever de soleil : 05:57 UTC (06:57 LT)
Coucher de soleil : 18:20 UTC (19:20 LT)

Météo

L'essentiel des conditions de vol

VIGILANCE MÉTÉO FRANCE - Indre-et-Loire (37)
Pas de vigilances particulieres
CARTE TEMSI
CARTES DES FRONTS
METAR de LFOT
LFOT 080500Z AUTO 05008KT 8000 NSC 00/M03 Q1021 NOSIG

Date d'émission: 08/03/2021
Heure d'émission: 05:00 UTC
Vent: 050° pour 8 KT (15 km/h)
Visibilité horizontale: 8000 m
Plafond : Pas de nuages significatifs (NSC)
Température: 0 °C
Point de rosée: -3 °C
Humidité: 80%
Pression (QNH): 1021 hPa
Conditions: Pas de changement dans les 2 heures (NOSIG)
TAF de LFOT
LFOT 071700Z 0718/0818 06006KT CAVOK

Conditions prévues :

Heure d'émission : Bulletin éffectué le 07 à 18:00 UTC
Prévision : Valide du 07 a 18:00 UTC au 08 a 18:00 UTC
Vent : 60° pour 6 KT (11 km/h)
Visibilité : > 10 km
WEBCAM POUR LANGEAIS

Réglementation

Voler en sécurité

CARTES AERONAUTIQUE 1/500.000
CARTES VAC (LFOT)
SUP AIP




Chargement des AIP...
NOTAM (LANGEAIS + Terrain à proximité / FIR )




Chargement des NOTAMS...
CONTACT PREFECTURE 37
Indre-et-Loire (37) : pref-drones@indre-et-loire.gouv.fr


Avertissement : Les données mises à disposition sont indicatives. Oxygène Drone ne pourra être tenu responsable de dégâts causés aux biens et aux personnes.